Oran, Algeria
Current Conditions -  °F | °C
As of 1:30 PM on Tuesday 21 Oct 2014 (Local Time) from DAOO Reporting Station
Clear Clear  
Wind Chill: 79°   Ceiling: Unl
Heat Index: 81°   Visibility: 6mi
Dew Point: 68°   Wind: 7mph
Humidity: 69%   Direction: 10°N
Pressure: 30.18"   Gusts: NA
Location:  35.61°N, 0.57°W
Report Text: DAOO 211230Z 01006KT CAVOK 26/20 Q1022
Loading
Personal Weather Stations






























Interactive Weather Map
Tropical Storm Tracking
New forecast layout! Learn more

10-Day Weather Forecast

Advertisements
Track Severe Weather on mobile